createdAt,value
2023-03-30T00:02:18.898Z,5.15
2023-03-30T00:04:47.341Z,6.53
2023-03-30T00:07:17.202Z,7.63
2023-03-30T00:09:46.534Z,6.45
2023-03-30T00:12:20.628Z,8.77
2023-03-30T00:14:49.224Z,5.82
2023-03-30T00:17:17.564Z,6.43
2023-03-30T00:19:45.992Z,6.63
2023-03-30T00:22:14.184Z,10.73
2023-03-30T00:24:43.665Z,7.18
2023-03-30T00:27:11.828Z,9.20
2023-03-30T00:29:39.986Z,5.35
2023-03-30T00:32:08.310Z,4.85
2023-03-30T00:34:37.264Z,9.30
2023-03-30T00:37:05.424Z,7.38
2023-03-30T00:39:33.834Z,9.35
2023-03-30T00:42:03.395Z,7.72
2023-03-30T00:45:07.169Z,7.38
2023-03-30T00:47:37.279Z,4.18
2023-03-30T00:50:07.993Z,6.47
2023-03-30T00:52:37.380Z,4.95
2023-03-30T00:55:08.638Z,10.85
2023-03-30T00:57:41.781Z,7.63
2023-03-30T01:00:11.968Z,20.15
2023-03-30T01:02:46.123Z,10.68
2023-03-30T01:05:14.577Z,6.32
2023-03-30T01:07:46.422Z,5.90
2023-03-30T01:10:14.566Z,9.80
2023-03-30T01:12:44.663Z,12.10
2023-03-30T01:15:13.446Z,6.50
2023-03-30T01:17:56.092Z,5.60
2023-03-30T01:20:56.788Z,5.35
2023-03-30T01:24:16.021Z,9.60
2023-03-30T01:26:57.823Z,5.80
2023-03-30T01:29:37.296Z,4.97
2023-03-30T01:32:37.966Z,9.65
2023-03-30T01:35:29.520Z,9.70
2023-03-30T01:38:30.250Z,6.68
2023-03-30T01:41:07.914Z,5.45
2023-03-30T01:43:40.189Z,5.25
2023-03-30T01:46:12.109Z,6.35
2023-03-30T01:48:45.521Z,8.95
2023-03-30T01:51:20.830Z,8.48
2023-03-30T01:53:56.385Z,6.22
2023-03-30T01:56:29.706Z,4.50
2023-03-30T01:59:03.314Z,5.07
2023-03-30T02:01:33.802Z,5.18
2023-03-30T02:04:04.953Z,9.77
2023-03-30T02:06:39.878Z,4.50
2023-03-30T02:09:11.160Z,5.82
2023-03-30T02:11:45.070Z,4.88
2023-03-30T02:14:16.061Z,5.80
2023-03-30T02:16:48.310Z,7.60
2023-03-30T02:19:17.119Z,5.82
2023-03-30T02:21:45.653Z,7.03
2023-03-30T02:24:19.354Z,9.25
2023-03-30T02:26:50.437Z,8.93
2023-03-30T02:29:19.065Z,4.90
2023-03-30T02:31:49.320Z,6.97
2023-03-30T02:34:28.843Z,4.93
2023-03-30T02:37:15.926Z,5.47
2023-03-30T02:39:48.116Z,10.27
2023-03-30T02:42:48.758Z,7.00
2023-03-30T02:45:29.085Z,5.78
2023-03-30T02:48:13.768Z,6.88
2023-03-30T02:50:50.039Z,4.80
2023-03-30T02:53:26.548Z,9.60
2023-03-30T02:56:06.080Z,6.25
2023-03-30T02:58:38.740Z,6.93
2023-03-30T03:01:13.523Z,6.22
2023-03-30T03:03:44.945Z,5.53
2023-03-30T03:06:14.792Z,6.20
2023-03-30T03:08:47.819Z,6.35
2023-03-30T03:11:16.201Z,6.80
2023-03-30T03:13:44.708Z,3.85
2023-03-30T03:16:14.334Z,4.60
2023-03-30T03:18:42.678Z,8.40
2023-03-30T03:21:12.383Z,8.25
2023-03-30T03:23:40.964Z,5.80
2023-03-30T03:26:09.726Z,5.90
2023-03-30T03:28:37.820Z,6.30
2023-03-30T03:31:06.463Z,5.85
2023-03-30T03:33:37.201Z,5.68
2023-03-30T03:36:05.930Z,9.85
2023-03-30T03:38:34.319Z,8.45
2023-03-30T03:41:02.595Z,7.97
2023-03-30T03:43:31.228Z,6.35
2023-03-30T03:45:59.552Z,7.93
2023-03-30T03:48:27.901Z,4.47
2023-03-30T03:50:59.262Z,8.02
2023-03-30T03:53:29.348Z,8.10
2023-03-30T03:55:57.552Z,5.35
2023-03-30T03:58:26.778Z,4.00
2023-03-30T04:00:59.324Z,4.72
2023-03-30T04:03:27.456Z,7.95
2023-03-30T04:05:59.226Z,7.57
2023-03-30T04:08:28.581Z,4.93
2023-03-30T04:10:56.827Z,9.60
2023-03-30T04:13:24.992Z,6.53
2023-03-30T04:15:53.135Z,5.00
2023-03-30T04:18:21.833Z,5.35
2023-03-30T04:20:50.696Z,8.10
2023-03-30T04:23:22.241Z,11.63
2023-03-30T04:25:51.899Z,9.23
2023-03-30T04:28:24.693Z,10.82
2023-03-30T04:30:52.843Z,8.70
2023-03-30T04:33:21.252Z,5.35
2023-03-30T04:35:49.372Z,4.97
2023-03-30T04:38:22.610Z,7.95
2023-03-30T04:40:53.037Z,8.25
2023-03-30T04:43:22.585Z,7.30
2023-03-30T04:45:51.982Z,8.07
2023-03-30T04:48:21.449Z,7.38
2023-03-30T04:50:51.026Z,9.68
2023-03-30T04:53:20.362Z,4.40
2023-03-30T04:55:50.671Z,5.20
2023-03-30T04:58:20.232Z,5.32
2023-03-30T05:00:48.400Z,8.13
2023-03-30T05:03:16.727Z,10.98
2023-03-30T05:05:45.039Z,4.07
2023-03-30T05:08:13.436Z,9.88
2023-03-30T05:10:41.532Z,6.53
2023-03-30T05:13:09.668Z,7.00
2023-03-30T05:15:39.829Z,7.93
2023-03-30T05:18:08.174Z,6.38
2023-03-30T05:20:36.434Z,8.10
2023-03-30T05:23:04.649Z,8.27
2023-03-30T05:25:32.799Z,6.15
2023-03-30T05:28:01.315Z,8.00
2023-03-30T05:30:29.475Z,4.50
2023-03-30T05:32:59.023Z,6.63
2023-03-30T05:35:27.228Z,6.75
2023-03-30T05:37:55.532Z,5.30
2023-03-30T05:40:23.706Z,6.47
2023-03-30T05:42:51.868Z,10.13
2023-03-30T05:45:20.044Z,8.52
2023-03-30T05:47:48.170Z,7.13
2023-03-30T05:50:18.020Z,7.40
2023-03-30T05:52:46.326Z,4.55
2023-03-30T05:55:15.458Z,10.02
2023-03-30T05:57:43.625Z,4.40
2023-03-30T06:00:13.883Z,7.43
2023-03-30T06:02:42.086Z,9.57
2023-03-30T06:05:10.949Z,6.55
2023-03-30T06:07:40.663Z,9.45
2023-03-30T06:10:09.742Z,7.22
2023-03-30T06:12:39.476Z,9.32
2023-03-30T06:15:09.184Z,6.82
2023-03-30T06:17:37.743Z,10.60
2023-03-30T06:20:12.605Z,12.02
2023-03-30T06:22:42.580Z,9.63
2023-03-30T06:25:13.542Z,10.88
2023-03-30T06:27:44.149Z,13.07
2023-03-30T06:30:13.772Z,13.40
2023-03-30T06:32:41.993Z,13.13
2023-03-30T06:35:10.585Z,12.45
2023-03-30T06:37:39.115Z,8.85
2023-03-30T06:40:13.323Z,14.77
2023-03-30T06:42:42.001Z,16.77
2023-03-30T06:45:11.198Z,7.13
2023-03-30T06:47:41.359Z,11.35
2023-03-30T06:50:10.432Z,14.20
2023-03-30T06:52:39.134Z,13.32
2023-03-30T06:55:09.487Z,20.17
2023-03-30T06:57:37.801Z,14.05
2023-03-30T07:00:13.031Z,13.25
2023-03-30T07:02:41.556Z,15.07
2023-03-30T07:05:10.290Z,18.63
2023-03-30T07:07:39.235Z,14.13
2023-03-30T07:10:11.117Z,15.45
2023-03-30T07:12:39.337Z,11.23
2023-03-30T07:15:09.038Z,15.05
2023-03-30T07:17:37.531Z,13.18
2023-03-30T07:20:08.257Z,12.13
2023-03-30T07:22:36.778Z,14.18
2023-03-30T07:25:05.457Z,13.88
2023-03-30T07:27:36.208Z,12.25
2023-03-30T07:30:17.923Z,13.73
2023-03-30T07:32:50.511Z,10.38
2023-03-30T07:35:19.138Z,12.82
2023-03-30T07:37:50.767Z,10.77
2023-03-30T07:40:19.921Z,11.90
2023-03-30T07:42:50.663Z,15.75
2023-03-30T07:45:18.917Z,17.33
2023-03-30T07:47:47.142Z,15.55
2023-03-30T07:50:15.353Z,15.32
2023-03-30T07:52:43.488Z,13.25
2023-03-30T07:55:11.628Z,17.55
2023-03-30T07:57:39.816Z,18.13
2023-03-30T08:00:12.574Z,24.63
2023-03-30T08:02:40.746Z,12.48
2023-03-30T08:05:09.782Z,11.32
2023-03-30T08:07:38.230Z,24.80
2023-03-30T08:10:08.183Z,17.38
2023-03-30T08:12:36.530Z,12.35
2023-03-30T08:15:04.868Z,16.10
2023-03-30T08:17:34.421Z,16.98
2023-03-30T08:20:06.465Z,21.58
2023-03-30T08:22:34.596Z,17.27
2023-03-30T08:25:03.010Z,21.65
2023-03-30T08:27:31.545Z,14.75
2023-03-30T08:30:00.292Z,16.83
2023-03-30T08:32:28.448Z,16.77
2023-03-30T08:34:57.995Z,15.27
2023-03-30T08:37:26.625Z,25.83
2023-03-30T08:39:54.767Z,17.23
2023-03-30T08:42:46.602Z,17.45
2023-03-30T08:45:15.840Z,12.13
2023-03-30T08:47:48.901Z,15.60
2023-03-30T08:50:26.527Z,23.02
2023-03-30T08:52:54.676Z,21.83
2023-03-30T08:55:28.695Z,18.98
2023-03-30T08:58:03.390Z,22.73
2023-03-30T09:00:39.751Z,21.33
2023-03-30T09:03:18.949Z,14.25
2023-03-30T09:05:53.861Z,15.32
2023-03-30T09:08:24.662Z,15.75
2023-03-30T09:10:58.861Z,19.63
2023-03-30T09:13:31.142Z,17.58
2023-03-30T09:16:06.139Z,13.35
2023-03-30T09:18:36.586Z,14.57
2023-03-30T09:21:07.706Z,18.02
2023-03-30T09:23:36.247Z,19.33
2023-03-30T09:26:13.344Z,12.88
2023-03-30T09:28:49.516Z,19.05
2023-03-30T09:31:22.243Z,22.15
2023-03-30T09:33:58.207Z,24.08
2023-03-30T09:36:33.510Z,21.13
2023-03-30T09:39:01.659Z,21.65
2023-03-30T09:41:43.318Z,22.45
2023-03-30T09:44:20.016Z,15.13
2023-03-30T09:46:49.981Z,21.13
2023-03-30T09:49:18.599Z,19.55
2023-03-30T09:52:03.054Z,16.27
2023-03-30T09:54:37.940Z,16.75
2023-03-30T09:57:06.806Z,13.85
2023-03-30T09:59:36.461Z,16.70
2023-03-30T10:02:18.350Z,17.73
2023-03-30T10:05:02.322Z,16.70
2023-03-30T10:07:34.680Z,19.35
2023-03-30T10:10:14.136Z,17.80
2023-03-30T10:12:42.388Z,16.27
2023-03-30T10:15:17.952Z,21.33
2023-03-30T10:17:48.846Z,16.83
2023-03-30T10:20:23.954Z,15.18
2023-03-30T10:22:56.484Z,15.60
2023-03-30T10:25:28.268Z,13.75
2023-03-30T10:28:01.426Z,11.80
2023-03-30T10:30:30.227Z,14.05
2023-03-30T10:33:00.606Z,11.77
2023-03-30T10:35:35.313Z,13.00
2023-03-30T10:38:05.989Z,15.27
2023-03-30T10:40:36.757Z,11.73
2023-03-30T10:43:08.860Z,11.07
2023-03-30T10:45:42.915Z,12.18
2023-03-30T10:48:24.933Z,9.70
2023-03-30T10:50:59.710Z,10.45
2023-03-30T10:53:40.982Z,13.75
2023-03-30T10:56:17.990Z,12.55
2023-03-30T10:59:08.018Z,13.73
2023-03-30T11:01:43.400Z,11.35
2023-03-30T11:06:54.187Z,13.10
2023-03-30T11:09:28.158Z,10.23
2023-03-30T11:11:59.976Z,14.70
2023-03-30T11:14:34.058Z,9.75
2023-03-30T11:17:09.240Z,12.60
2023-03-30T11:19:43.538Z,17.50
2023-03-30T11:22:22.055Z,13.75
2023-03-30T11:24:54.323Z,17.70
2023-03-30T11:27:29.381Z,16.77
2023-03-30T11:30:03.678Z,17.65
2023-03-30T11:32:38.991Z,12.45
2023-03-30T11:35:15.369Z,16.63
2023-03-30T11:37:49.570Z,13.38
2023-03-30T11:40:24.196Z,17.70
2023-03-30T11:42:53.825Z,17.38
2023-03-30T11:45:42.703Z,15.52
2023-03-30T11:48:32.164Z,17.92
2023-03-30T11:51:13.782Z,17.90
2023-03-30T11:53:53.129Z,17.85
2023-03-30T11:56:29.065Z,17.35
2023-03-30T11:59:06.030Z,13.10
2023-03-30T12:02:02.843Z,17.10
2023-03-30T12:04:38.636Z,19.60
2023-03-30T12:07:18.079Z,13.70
2023-03-30T12:09:50.706Z,14.18
2023-03-30T12:12:26.874Z,12.35
2023-03-30T12:15:01.629Z,20.80
2023-03-30T12:17:40.900Z,14.88
2023-03-30T12:20:19.877Z,12.50
2023-03-30T12:22:53.592Z,20.48
2023-03-30T12:25:29.663Z,23.30
2023-03-30T12:28:12.245Z,12.85
2023-03-30T12:30:48.538Z,17.08
2023-03-30T12:33:19.946Z,10.90
2023-03-30T12:35:55.694Z,11.07
2023-03-30T12:38:25.688Z,19.15
2023-03-30T12:41:16.832Z,14.55
2023-03-30T12:44:15.024Z,17.40
2023-03-30T12:46:52.494Z,16.17
2023-03-30T12:49:30.959Z,12.23
2023-03-30T12:52:10.698Z,15.40
2023-03-30T12:55:00.812Z,13.10
2023-03-30T12:57:49.556Z,17.50
2023-03-30T13:00:59.042Z,18.83
2023-03-30T13:03:40.716Z,13.15
2023-03-30T13:06:15.818Z,15.15
2023-03-30T13:08:44.164Z,15.07
2023-03-30T13:11:15.820Z,14.15
2023-03-30T13:13:51.390Z,11.77
2023-03-30T13:17:07.217Z,15.30
2023-03-30T13:20:12.684Z,14.20
2023-03-30T13:23:02.363Z,8.43
2023-03-30T13:25:39.886Z,12.60
2023-03-30T13:28:35.300Z,15.30
2023-03-30T13:31:16.434Z,12.40
2023-03-30T13:33:50.859Z,19.50
2023-03-30T13:36:23.824Z,8.68
2023-03-30T13:39:04.044Z,14.85
2023-03-30T13:41:44.792Z,14.25
2023-03-30T13:44:34.985Z,11.25
2023-03-30T13:47:12.527Z,13.45
2023-03-30T13:49:51.443Z,14.82
2023-03-30T13:52:25.946Z,13.93
2023-03-30T13:54:54.245Z,10.10
2023-03-30T13:57:26.721Z,17.33
2023-03-30T14:00:00.392Z,17.08
2023-03-30T14:02:31.575Z,13.75
2023-03-30T14:05:15.490Z,16.48
2023-03-30T14:07:47.501Z,14.65
2023-03-30T14:10:17.879Z,14.98
2023-03-30T14:12:49.170Z,8.20
2023-03-30T14:15:21.079Z,12.23
2023-03-30T14:17:52.111Z,12.40
2023-03-30T14:20:36.325Z,12.18
2023-03-30T14:23:05.713Z,13.93
2023-03-30T14:25:37.042Z,9.45
2023-03-30T14:28:13.509Z,9.48
2023-03-30T14:30:51.070Z,16.02
2023-03-30T14:33:19.711Z,14.82
2023-03-30T14:35:51.479Z,16.02
2023-03-30T14:38:23.995Z,11.77
2023-03-30T14:40:53.610Z,14.15
2023-03-30T14:43:24.591Z,17.30
2023-03-30T14:45:54.759Z,12.43
2023-03-30T14:48:29.567Z,14.40
2023-03-30T14:50:59.831Z,12.00
2023-03-30T14:53:29.139Z,8.70
2023-03-30T14:56:00.674Z,12.77
2023-03-30T14:58:32.057Z,9.48
2023-03-30T15:01:03.675Z,16.00
2023-03-30T15:03:35.091Z,12.68
2023-03-30T15:06:07.459Z,13.57
2023-03-30T15:08:41.414Z,10.75
2023-03-30T15:11:13.474Z,10.82
2023-03-30T15:13:44.604Z,13.50
2023-03-30T15:16:17.467Z,14.57
2023-03-30T15:18:45.877Z,17.13
2023-03-30T15:21:15.931Z,11.68
2023-03-30T15:23:46.554Z,7.28
2023-03-30T15:26:15.259Z,11.55
2023-03-30T15:28:48.238Z,10.88
2023-03-30T15:31:17.363Z,10.90
2023-03-30T15:33:47.077Z,9.48
2023-03-30T15:36:20.518Z,10.90
2023-03-30T15:38:51.454Z,9.07
2023-03-30T15:41:23.390Z,9.35
2023-03-30T15:43:56.879Z,8.00
2023-03-30T15:46:27.960Z,12.30
2023-03-30T15:48:59.491Z,4.95
2023-03-30T15:51:33.195Z,9.65
2023-03-30T15:54:04.314Z,10.30
2023-03-30T15:56:38.461Z,7.43
2023-03-30T15:59:11.155Z,8.73
2023-03-30T16:01:45.047Z,9.23
2023-03-30T16:04:16.577Z,11.60
2023-03-30T16:06:47.470Z,8.15
2023-03-30T16:09:16.051Z,11.75
2023-03-30T16:11:46.221Z,8.88
2023-03-30T16:14:18.393Z,10.23
2023-03-30T16:16:46.574Z,10.68
2023-03-30T16:19:17.433Z,10.10
2023-03-30T16:21:47.012Z,11.68
2023-03-30T16:24:15.460Z,7.05
2023-03-30T16:26:44.007Z,10.52
2023-03-30T16:29:21.453Z,10.38
2023-03-30T16:31:49.827Z,8.02
2023-03-30T16:34:18.641Z,11.40
2023-03-30T16:36:48.212Z,12.43
2023-03-30T16:39:19.429Z,9.10
2023-03-30T16:41:48.410Z,8.73
2023-03-30T16:44:17.209Z,10.80
2023-03-30T16:46:45.607Z,10.30
2023-03-30T16:49:15.447Z,10.60
2023-03-30T16:51:44.186Z,13.43
2023-03-30T16:54:27.273Z,11.10
2023-03-30T16:56:59.181Z,14.07
2023-03-30T16:59:30.377Z,9.30
2023-03-30T17:01:58.982Z,16.75
2023-03-30T17:04:27.229Z,7.13
2023-03-30T17:06:55.729Z,7.50
2023-03-30T17:09:25.608Z,8.98
2023-03-30T17:11:53.718Z,9.77
2023-03-30T17:14:23.336Z,11.57
2023-03-30T17:16:51.609Z,7.30
2023-03-30T17:19:19.755Z,8.15
2023-03-30T17:21:47.965Z,10.15
2023-03-30T17:24:17.032Z,8.32
2023-03-30T17:26:46.682Z,7.40
2023-03-30T17:29:14.839Z,11.48
2023-03-30T17:31:45.862Z,10.90
2023-03-30T17:34:14.751Z,6.78
2023-03-30T17:36:43.064Z,11.07
2023-03-30T17:39:13.999Z,9.40
2023-03-30T17:41:42.400Z,7.10
2023-03-30T17:44:11.862Z,8.77
2023-03-30T17:46:43.009Z,18.25
2023-03-30T17:49:17.150Z,11.25
2023-03-30T17:51:45.567Z,10.60
2023-03-30T17:54:13.739Z,11.25
2023-03-30T17:56:42.003Z,7.63
2023-03-30T17:59:13.191Z,16.33
2023-03-30T18:01:41.592Z,10.18
2023-03-30T18:04:10.073Z,13.77
2023-03-30T18:06:38.364Z,10.55
2023-03-30T18:09:11.331Z,9.25
2023-03-30T18:11:39.758Z,14.25
2023-03-30T18:14:08.319Z,12.45
2023-03-30T18:16:40.465Z,10.82
2023-03-30T18:19:10.781Z,12.00
2023-03-30T18:21:39.025Z,13.07
2023-03-30T18:24:07.909Z,10.60
2023-03-30T18:26:36.024Z,12.85
2023-03-30T18:29:06.549Z,8.85
2023-03-30T18:31:34.689Z,13.38
2023-03-30T18:34:04.236Z,9.40
2023-03-30T18:36:32.417Z,10.15
2023-03-30T18:39:01.175Z,11.10
2023-03-30T18:41:29.307Z,12.55
2023-03-30T18:43:57.441Z,11.35
2023-03-30T18:46:25.623Z,11.30
2023-03-30T18:48:53.770Z,13.43
2023-03-30T18:51:23.275Z,11.80
2023-03-30T18:53:51.378Z,13.77
2023-03-30T18:56:19.860Z,12.98
2023-03-30T18:58:48.037Z,14.02
2023-03-30T19:01:16.512Z,11.05
2023-03-30T19:03:45.928Z,11.15
2023-03-30T19:06:18.439Z,12.98
2023-03-30T19:08:47.943Z,9.35
2023-03-30T19:11:20.268Z,11.07
2023-03-30T19:13:48.495Z,12.68
2023-03-30T19:16:18.721Z,12.65
2023-03-30T19:18:48.259Z,13.27
2023-03-30T19:21:17.726Z,9.73
2023-03-30T19:23:47.362Z,7.88
2023-03-30T19:26:15.536Z,14.02
2023-03-30T19:28:43.635Z,5.28
2023-03-30T19:31:15.887Z,12.40
2023-03-30T19:33:44.454Z,9.15
2023-03-30T19:36:12.665Z,9.60
2023-03-30T19:38:41.702Z,8.95
2023-03-30T19:41:11.496Z,14.77
2023-03-30T19:43:39.586Z,8.45
2023-03-30T19:46:08.735Z,9.10
2023-03-30T19:48:36.938Z,14.35
2023-03-30T19:51:05.367Z,9.15
2023-03-30T19:53:33.663Z,10.00
2023-03-30T19:56:01.817Z,14.57
2023-03-30T19:58:31.289Z,12.38
2023-03-30T20:01:04.206Z,9.57
2023-03-30T20:03:32.703Z,14.25
2023-03-30T20:06:01.111Z,9.85
2023-03-30T20:08:29.562Z,8.25
2023-03-30T20:10:59.383Z,13.07
2023-03-30T20:13:27.853Z,14.80
2023-03-30T20:15:57.484Z,9.15
2023-03-30T20:18:25.698Z,16.50
2023-03-30T20:20:53.864Z,12.90
2023-03-30T20:23:22.018Z,15.65
2023-03-30T20:25:52.604Z,13.60
2023-03-30T20:28:20.700Z,11.70
2023-03-30T20:30:48.846Z,11.45
2023-03-30T20:33:18.717Z,10.55
2023-03-30T20:35:46.976Z,13.68
2023-03-30T20:38:15.227Z,11.68
2023-03-30T20:40:43.520Z,14.02
2023-03-30T20:43:11.640Z,15.30
2023-03-30T20:45:46.320Z,14.30
2023-03-30T20:48:26.195Z,9.18
2023-03-30T20:50:56.818Z,10.70
2023-03-30T20:53:25.982Z,9.82
2023-03-30T20:55:54.092Z,9.73
2023-03-30T20:58:23.422Z,12.82
2023-03-30T21:00:53.108Z,12.52
2023-03-30T21:03:26.058Z,12.82
2023-03-30T21:06:01.730Z,13.48
2023-03-30T21:08:31.426Z,12.30
2023-03-30T21:10:59.670Z,12.35
2023-03-30T21:13:27.987Z,10.85
2023-03-30T21:15:59.362Z,10.40
2023-03-30T21:18:28.164Z,10.65
2023-03-30T21:20:56.417Z,12.82
2023-03-30T21:23:26.803Z,12.48
2023-03-30T21:25:57.298Z,15.38
2023-03-30T21:28:27.284Z,12.02
2023-03-30T21:30:56.783Z,15.50
2023-03-30T21:33:25.402Z,13.10
2023-03-30T21:35:54.744Z,14.15
2023-03-30T21:38:23.249Z,10.00
2023-03-30T21:41:04.630Z,11.43
2023-03-30T21:43:35.039Z,15.43
2023-03-30T21:46:05.096Z,11.15
2023-03-30T21:48:35.216Z,15.38
2023-03-30T21:51:05.147Z,12.52
2023-03-30T21:53:34.294Z,11.13
2023-03-30T21:56:04.896Z,18.85
2023-03-30T21:58:33.199Z,11.50
2023-03-30T22:01:11.870Z,14.48
2023-03-30T22:03:41.824Z,13.15
2023-03-30T22:06:13.222Z,12.48
2023-03-30T22:08:41.959Z,9.93
2023-03-30T22:11:14.554Z,15.32
2023-03-30T22:13:42.710Z,13.43
2023-03-30T22:16:13.881Z,13.25
2023-03-30T22:18:42.488Z,12.48
2023-03-30T22:21:13.973Z,13.85
2023-03-30T22:23:42.141Z,12.35
2023-03-30T22:26:12.670Z,6.55
2023-03-30T22:28:41.130Z,8.48
2023-03-30T22:31:10.379Z,9.43
2023-03-30T22:33:38.935Z,10.30
2023-03-30T22:36:15.042Z,8.73
2023-03-30T22:38:43.342Z,8.18
2023-03-30T22:41:13.187Z,8.80
2023-03-30T22:43:41.342Z,11.90
2023-03-30T22:46:09.879Z,9.60
2023-03-30T22:48:41.486Z,8.63
2023-03-30T22:51:14.687Z,8.57
2023-03-30T22:53:42.855Z,9.38
2023-03-30T22:56:12.333Z,12.50
2023-03-30T22:58:40.399Z,8.75
2023-03-30T23:01:10.478Z,8.70
2023-03-30T23:03:39.287Z,7.82
2023-03-30T23:06:08.084Z,7.03
2023-03-30T23:08:36.606Z,6.20
2023-03-30T23:11:06.447Z,10.70
2023-03-30T23:13:37.571Z,10.75
2023-03-30T23:16:07.385Z,9.82
2023-03-30T23:18:36.180Z,9.20
2023-03-30T23:21:06.729Z,7.95
2023-03-30T23:23:35.790Z,7.07
2023-03-30T23:26:08.342Z,7.78
2023-03-30T23:28:40.083Z,9.75
2023-03-30T23:31:09.525Z,12.75
2023-03-30T23:33:37.672Z,8.43
2023-03-30T23:36:07.443Z,13.18
2023-03-30T23:38:37.361Z,10.98
2023-03-30T23:41:06.085Z,10.10
2023-03-30T23:43:34.298Z,8.85
2023-03-30T23:46:04.065Z,13.02
2023-03-30T23:48:32.716Z,8.30
2023-03-30T23:51:00.917Z,13.80
2023-03-30T23:53:29.174Z,12.43
2023-03-30T23:55:58.271Z,13.50
2023-03-30T23:58:27.115Z,14.90
